KDMO/DMO METAR and TAF weather

Enter ICAO airport designator
Station Type Date Time Source
KDMO METAR 2022/08/13 10:53 UTC NOAA

KDMO 131053Z AUTO 14006KT 9SM CLR 20/18 A3011 RMK AO2 SLP186 T02000183


Station Type Date Time Source
KDMO Decoded METAR 2022/08/13 10:53 UTC NOAA

SEDALIA MEMORIAL AIRPORT, MO, United States (KDMO) 38-43N 93-10W 274M
Aug 13, 2022 - 06:53 AM EDT / 2022.08.13 1053 UTC
Wind: from the SE (140 degrees) at 7 MPH (6 KT):0
Visibility: 9 mile(s):0
Sky conditions: clear
Temperature: 68.0 F (20.0 C)
Dew Point: 64.9 F (18.3 C)
Relative Humidity: 89%
Pressure (altimeter): 30.11 in. Hg (1019 hPa)
ob: KDMO 131053Z AUTO 14006KT 9SM CLR 20/18 A3011 RMK AO2 SLP186 T02000183
cycle: 11

Station Type Date Time Source
KDMO TAF UTC NOAA

Error!

Example: see airport list